Time;durP1;ratioP1;P1;durP2;ratioP2;P2;SDS_P1;SDS_P2;PMS_P1;PMS_P2;Temp;Humidity;BMP_temperature;BMP_pressure;BME280_temperature;BME280_humidity;BME280_pressure;Samples;Min_cycle;Max_cycle;Signal;HPM_P1;HPM_P2
2022/11/03 00:01:36;;;;;;;1.08;0.98;;;16.70;64.80;;;;;;5083823;28;20020;-70
2022/11/03 00:04:03;;;;;;;1.25;1.15;;;16.70;64.70;;;;;;5083170;28;20308;-69
2022/11/03 00:06:29;;;;;;;1.30;1.20;;;16.70;64.70;;;;;;5083732;28;20036;-70
2022/11/03 00:08:58;;;;;;;1.52;1.42;;;16.70;64.70;;;;;;5083681;28;20020;-70
2022/11/03 00:11:24;;;;;;;1.80;1.67;;;16.70;64.70;;;;;;5083673;28;20040;-70
2022/11/03 00:13:50;;;;;;;2.10;1.58;;;16.70;64.70;;;;;;5083567;28;20095;-70
2022/11/03 00:16:16;;;;;;;1.30;1.20;;;16.70;64.70;;;;;;5082469;28;20027;-71
2022/11/03 00:18:42;;;;;;;1.40;1.30;;;16.70;64.70;;;;;;5083542;28;20204;-71
2022/11/03 00:21:10;;;;;;;1.40;1.30;;;16.70;64.70;;;;;;5083543;28;20044;-71
2022/11/03 00:23:41;;;;;;;1.48;1.20;;;16.70;64.70;;;;;;5083537;28;20040;-71
2022/11/03 00:26:21;;;;;;;1.52;1.30;;;16.70;64.70;;;;;;5083501;28;20021;-69
2022/11/03 00:28:49;;;;;;;1.38;1.25;;;16.70;64.70;;;;;;5043505;28;20037;-70
2022/11/03 00:31:21;;;;;;;1.65;1.55;;;16.70;64.70;;;;;;5043483;28;20256;-70
2022/11/03 00:33:47;;;;;;;1.25;1.15;;;16.70;64.70;;;;;;5043384;28;20213;-70
2022/11/03 00:36:15;;;;;;;1.48;1.38;;;16.60;64.70;;;;;;5043402;28;20013;-71
2022/11/03 00:38:42;;;;;;;1.40;1.25;;;16.70;64.70;;;;;;5043405;28;20013;-71
2022/11/03 00:41:09;;;;;;;1.65;1.55;;;16.60;64.70;;;;;;5043329;28;20037;-69
2022/11/03 00:43:35;;;;;;;1.40;1.30;;;16.70;64.70;;;;;;5043373;28;20111;-70
2022/11/03 00:46:02;;;;;;;1.42;1.30;;;16.70;64.70;;;;;;5043282;28;20021;-70
2022/11/03 00:48:34;;;;;;;1.52;1.33;;;16.70;64.70;;;;;;5043264;28;20028;-70
2022/11/03 00:51:11;;;;;;;1.25;1.15;;;16.60;64.70;;;;;;5043281;28;20025;-70
2022/11/03 00:53:47;;;;;;;1.37;1.20;;;16.70;64.80;;;;;;5043276;28;20024;-70
2022/11/03 00:56:39;;;;;;;1.10;1.00;;;16.60;65.30;;;;;;5043242;28;20018;-70
2022/11/03 00:59:08;;;;;;;1.52;1.40;;;16.60;64.70;;;;;;5042074;28;20060;-70
2022/11/03 01:01:39;;;;;;;1.40;1.30;;;16.60;64.70;;;;;;5043200;28;20301;-70
2022/11/03 01:06:52;;;;;;;1.35;1.25;;;16.70;64.70;;;;;;5043115;28;20089;-70
2022/11/03 01:09:37;;;;;;;1.30;1.20;;;16.60;64.70;;;;;;5043078;28;20213;-70
2022/11/03 01:12:15;;;;;;;1.33;1.23;;;16.60;64.70;;;;;;5043077;28;20055;-70
2022/11/03 01:14:46;;;;;;;1.35;1.10;;;16.60;64.60;;;;;;5042955;28;20026;-70
2022/11/03 01:17:16;;;;;;;1.27;1.10;;;16.60;64.70;;;;;;5046408;28;20013;-70
2022/11/03 01:19:42;;;;;;;1.50;1.40;;;16.60;64.70;;;;;;5046780;28;20017;-70
2022/11/03 01:22:09;;;;;;;1.33;1.10;;;16.60;64.80;;;;;;5046716;28;20020;-70
2022/11/03 01:24:35;;;;;;;1.35;1.25;;;16.60;64.80;;;;;;5046691;28;20067;-70
2022/11/03 01:27:01;;;;;;;1.40;1.20;;;16.60;64.80;;;;;;5059296;28;20285;-70
2022/11/03 01:29:26;;;;;;;1.48;1.35;;;16.60;64.70;;;;;;5086615;28;20020;-69
2022/11/03 01:31:52;;;;;;;1.25;1.15;;;16.60;64.70;;;;;;5086542;28;20024;-70
2022/11/03 01:34:20;;;;;;;1.50;1.40;;;16.60;64.80;;;;;;5086443;28;20020;-70
2022/11/03 01:36:46;;;;;;;1.50;1.30;;;16.60;64.80;;;;;;5086507;28;20319;-70
2022/11/03 01:39:15;;;;;;;1.45;1.35;;;16.60;64.90;;;;;;5086420;28;20032;-70
2022/11/03 01:41:41;;;;;;;;;;;16.60;64.80;;;;;;5086862;28;20099;-70
2022/11/03 01:44:07;;;;;;;1.83;1.52;;;16.60;64.80;;;;;;5086392;28;19907;-70
2022/11/03 01:46:47;;;;;;;1.27;1.05;;;16.60;64.70;;;;;;5086256;28;20263;-71
2022/11/03 01:49:19;;;;;;;1.42;1.23;;;16.60;64.60;;;;;;5085135;28;20016;-70
2022/11/03 01:51:49;;;;;;;1.40;1.30;;;16.60;64.60;;;;;;5086251;28;20020;-70
2022/11/03 01:54:20;;;;;;;1.40;1.30;;;16.60;64.70;;;;;;5086139;28;20023;-70
2022/11/03 01:56:46;;;;;;;1.45;1.35;;;16.60;64.70;;;;;;5086185;28;20039;-70
2022/11/03 01:59:15;;;;;;;1.08;1.00;;;16.60;64.70;;;;;;5086136;28;20436;-71
2022/11/03 02:01:41;;;;;;;;;;;16.60;64.80;;;;;;5086466;28;20027;-70
2022/11/03 02:04:18;;;;;;;1.20;1.10;;;16.60;64.70;;;;;;5086000;28;19939;-71
2022/11/03 02:06:44;;;;;;;1.35;1.25;;;16.60;64.70;;;;;;5086015;28;20335;-70
2022/11/03 02:09:10;;;;;;;1.45;1.30;;;16.60;64.70;;;;;;5085918;28;20020;-70
2022/11/03 02:14:21;;;;;;;1.60;1.50;;;16.60;64.70;;;;;;5085773;28;20031;-70
2022/11/03 02:16:54;;;;;;;1.40;1.30;;;16.60;64.70;;;;;;5085777;28;20205;-69
2022/11/03 02:19:31;;;;;;;2.03;1.33;;;16.60;64.70;;;;;;5085716;28;20039;-70
2022/11/03 02:22:17;;;;;;;1.95;1.55;;;16.50;64.70;;;;;;5085738;28;20017;-70
2022/11/03 02:24:49;;;;;;;1.27;1.17;;;16.60;64.70;;;;;;5075016;28;20029;-69
2022/11/03 02:27:15;;;;;;;1.23;1.10;;;16.60;64.70;;;;;;5083631;28;20355;-70
2022/11/03 02:29:41;;;;;;;2.20;1.58;;;16.60;64.70;;;;;;5085499;28;20032;-70
2022/11/03 02:32:28;;;;;;;1.52;1.42;;;16.60;64.70;;;;;;5085486;28;20032;-70
2022/11/03 02:35:07;;;;;;;1.20;1.10;;;16.60;64.70;;;;;;5085242;28;20028;-70
2022/11/03 02:37:35;;;;;;;;;;;16.60;64.70;;;;;;5085823;28;20095;-70
2022/11/03 02:40:23;;;;;;;1.63;1.43;;;16.50;64.60;;;;;;5085337;28;19994;-70
2022/11/03 02:42:52;;;;;;;1.40;1.17;;;16.60;64.60;;;;;;5084137;28;20016;-70
2022/11/03 02:45:20;;;;;;;1.42;1.00;;;16.60;64.60;;;;;;5085181;28;20032;-70
2022/11/03 02:47:47;;;;;;;;;;;16.60;64.60;;;;;;5085573;28;20031;-70
2022/11/03 02:50:13;;;;;;;1.20;1.02;;;16.60;64.60;;;;;;5085114;28;20069;-70
2022/11/03 02:52:43;;;;;;;1.38;1.27;;;16.60;64.70;;;;;;5085091;28;20036;-70
2022/11/03 02:55:08;;;;;;;0.90;0.90;;;16.50;64.60;;;;;;5084863;28;20024;-70
2022/11/03 02:57:42;;;;;;;1.50;1.40;;;16.50;64.60;;;;;;5084919;28;20312;-70
2022/11/03 03:00:09;;;;;;;1.20;1.10;;;16.50;64.60;;;;;;5084946;28;20012;-70
2022/11/03 03:02:46;;;;;;;1.60;1.35;;;16.60;64.60;;;;;;5084834;28;20016;-70
2022/11/03 03:05:14;;;;;;;1.48;1.38;;;16.60;64.70;;;;;;5084795;28;20383;-70
2022/11/03 03:07:45;;;;;;;1.52;1.42;;;16.50;64.70;;;;;;5084743;28;20021;-70
2022/11/03 03:10:18;;;;;;;1.58;1.40;;;16.60;64.70;;;;;;5084744;28;20025;-70
2022/11/03 03:12:52;;;;;;;1.40;1.30;;;16.50;64.70;;;;;;5084672;28;20013;-70
2022/11/03 03:15:22;;;;;;;1.13;1.02;;;16.50;64.70;;;;;;5084551;28;20058;-70
2022/11/03 03:17:59;;;;;;;1.35;1.20;;;16.50;64.60;;;;;;5084510;28;20017;-70
2022/11/03 03:20:36;;;;;;;0.98;0.90;;;16.50;64.60;;;;;;5084546;28;20012;-69
2022/11/03 03:23:24;;;;;;;1.20;1.10;;;16.50;64.60;;;;;;5084467;28;20075;-70
2022/11/03 03:25:57;;;;;;;1.42;1.20;;;16.50;64.60;;;;;;5084432;28;20027;-70
2022/11/03 03:28:39;;;;;;;1.30;1.20;;;16.50;64.70;;;;;;5084248;28;20071;-70
2022/11/03 03:31:09;;;;;;;1.60;1.48;;;16.50;64.70;;;;;;5084347;28;20024;-70
2022/11/03 03:33:37;;;;;;;1.70;1.45;;;16.50;64.70;;;;;;5084218;28;20024;-70
2022/11/03 03:36:06;;;;;;;1.63;1.27;;;16.50;64.70;;;;;;5084193;28;20013;-70
2022/11/03 03:38:37;;;;;;;1.30;1.20;;;16.50;64.70;;;;;;5083767;28;20370;-70
2022/11/03 03:41:04;;;;;;;1.58;1.48;;;16.50;64.70;;;;;;5083714;28;20017;-70
2022/11/03 03:43:32;;;;;;;1.38;1.27;;;16.50;64.70;;;;;;5084069;28;20016;-70
2022/11/03 03:46:04;;;;;;;1.52;1.42;;;16.50;64.70;;;;;;5084032;28;20093;-70
2022/11/03 03:48:30;;;;;;;1.70;1.38;;;16.50;64.70;;;;;;5084027;28;20043;-70
2022/11/03 03:50:57;;;;;;;1.48;1.38;;;16.50;64.70;;;;;;5083952;28;20024;-70
2022/11/03 03:53:28;;;;;;;1.38;1.27;;;16.50;64.70;;;;;;5083884;28;20020;-70
2022/11/03 03:55:54;;;;;;;1.48;1.38;;;16.50;64.70;;;;;;5083893;28;20084;-70
2022/11/03 03:58:20;;;;;;;1.50;1.40;;;16.50;64.70;;;;;;5083836;28;20023;-70
2022/11/03 04:00:46;;;;;;;1.50;1.40;;;16.50;64.70;;;;;;5083813;28;20016;-70
2022/11/03 04:03:18;;;;;;;1.50;1.40;;;16.50;64.70;;;;;;5082626;28;20320;-70
2022/11/03 04:05:44;;;;;;;1.50;1.38;;;16.50;64.70;;;;;;5082587;28;20020;-70
2022/11/03 04:08:11;;;;;;;1.40;1.23;;;16.50;64.70;;;;;;5083716;28;20197;-70
2022/11/03 04:10:37;;;;;;;1.30;1.20;;;16.40;64.70;;;;;;5083705;28;20021;-70
2022/11/03 04:23:47;;;;;;;1.40;1.20;;;16.40;64.70;;;;;;5083615;28;20035;-70
2022/11/03 04:26:15;;;;;;;1.40;1.30;;;16.40;64.70;;;;;;5083557;28;20296;-70
2022/11/03 04:28:42;;;;;;;1.48;1.27;;;16.40;64.80;;;;;;5083512;28;20035;-71
2022/11/03 04:31:16;;;;;;;1.52;1.20;;;16.50;64.80;;;;;;5083475;28;20028;-71
2022/11/03 04:33:43;;;;;;;1.30;1.20;;;16.40;64.80;;;;;;5083431;28;20050;-71
2022/11/03 04:36:23;;;;;;;1.48;1.30;;;16.50;64.90;;;;;;5083365;28;20032;-71
2022/11/03 04:38:50;;;;;;;1.15;1.05;;;16.40;64.80;;;;;;5083440;28;20043;-71
2022/11/03 04:41:20;;;;;;;1.45;1.20;;;16.40;64.80;;;;;;5083340;28;20313;-71
2022/11/03 04:43:47;;;;;;;1.55;1.45;;;16.40;64.80;;;;;;5083353;28;20072;-69
2022/11/03 04:46:15;;;;;;;1.90;1.55;;;16.40;64.80;;;;;;5083325;28;20028;-70
2022/11/03 04:48:42;;;;;;;1.17;1.08;;;16.40;64.70;;;;;;5083276;28;20016;-70
2022/11/03 04:51:21;;;;;;;1.15;1.05;;;16.40;64.80;;;;;;5085125;28;20313;-70
2022/11/03 04:54:18;;;;;;;1.55;1.45;;;16.40;64.80;;;;;;5087266;28;20020;-70
2022/11/03 04:56:44;;;;;;;1.38;1.27;;;16.40;64.70;;;;;;5081288;28;20220;-70
2022/11/03 04:59:12;;;;;;;1.33;1.23;;;16.40;64.70;;;;;;5087219;28;20047;-70
2022/11/03 05:01:38;;;;;;;1.80;1.40;;;16.40;64.70;;;;;;5087201;28;20087;-70
2022/11/03 05:04:10;;;;;;;1.58;1.45;;;16.40;64.70;;;;;;5087142;28;20050;-70
2022/11/03 05:06:36;;;;;;;1.42;1.20;;;16.40;64.80;;;;;;5087119;28;20035;-70
2022/11/03 05:09:14;;;;;;;1.27;1.10;;;16.40;64.70;;;;;;5087038;28;20332;-70
2022/11/03 05:11:46;;;;;;;1.42;1.33;;;16.40;64.80;;;;;;5086987;28;20023;-70
2022/11/03 05:14:12;;;;;;;1.48;1.38;;;16.40;64.70;;;;;;5086800;28;20027;-69
2022/11/03 05:16:38;;;;;;;1.55;1.42;;;16.40;64.70;;;;;;5086870;28;20083;-70
2022/11/03 05:19:12;;;;;;;1.60;1.50;;;16.40;64.80;;;;;;5086882;28;20073;-70
2022/11/03 05:21:37;;;;;;;1.20;1.10;;;16.40;64.80;;;;;;5086847;28;20084;-70
2022/11/03 05:24:10;;;;;;;1.48;1.38;;;16.40;64.80;;;;;;5086699;28;20017;-70
2022/11/03 05:26:36;;;;;;;1.33;1.23;;;16.40;64.80;;;;;;5086592;28;20028;-70
2022/11/03 05:29:17;;;;;;;1.52;1.42;;;16.40;64.70;;;;;;5086683;28;20126;-70
2022/11/03 05:31:45;;;;;;;2.45;1.60;;;16.40;64.70;;;;;;5086607;28;20016;-70
2022/11/03 05:34:27;;;;;;;1.45;1.25;;;16.40;64.80;;;;;;5086488;28;20020;-70
2022/11/03 05:36:53;;;;;;;1.33;1.23;;;16.40;64.80;;;;;;5086529;28;20021;-70
2022/11/03 05:39:33;;;;;;;1.15;1.05;;;16.40;64.70;;;;;;5086444;28;20016;-70
2022/11/03 05:41:59;;;;;;;1.48;1.38;;;16.40;64.70;;;;;;5086492;28;20012;-70
2022/11/03 05:44:36;;;;;;;1.70;1.60;;;16.40;64.60;;;;;;5086378;28;20024;-70
2022/11/03 05:47:13;;;;;;;1.52;1.38;;;16.40;64.60;;;;;;5086317;28;20044;-70
2022/11/03 05:49:39;;;;;;;1.80;1.23;;;16.40;64.70;;;;;;5086303;28;20021;-69
2022/11/03 05:52:12;;;;;;;1.98;1.40;;;16.40;64.70;;;;;;5086269;28;20227;-70
2022/11/03 05:54:38;;;;;;;1.65;1.40;;;16.40;64.60;;;;;;5086168;28;20342;-71
2022/11/03 05:57:12;;;;;;;1.25;1.10;;;16.40;64.60;;;;;;5086134;28;20020;-70
2022/11/03 05:59:38;;;;;;;1.60;1.42;;;16.40;64.60;;;;;;5086124;28;20203;-70
2022/11/03 06:02:22;;;;;;;1.15;1.08;;;16.40;64.60;;;;;;5084971;28;20020;-70
2022/11/03 06:04:48;;;;;;;1.77;1.58;;;16.40;64.50;;;;;;5084889;28;20043;-70
2022/11/03 06:07:26;;;;;;;1.02;1.02;;;16.40;64.60;;;;;;5085946;28;20016;-70
2022/11/03 06:09:55;;;;;;;1.10;1.00;;;16.40;64.60;;;;;;5084779;28;20027;-70
2022/11/03 06:12:23;;;;;;;1.33;1.20;;;16.40;64.60;;;;;;5085846;28;20257;-70
2022/11/03 06:14:50;;;;;;;1.27;1.17;;;16.40;64.60;;;;;;5085809;28;20249;-70
2022/11/03 06:17:23;;;;;;;1.80;1.55;;;16.40;64.50;;;;;;5085758;28;20024;-70
2022/11/03 06:19:53;;;;;;;1.42;1.30;;;16.40;64.50;;;;;;5085722;28;20017;-70
2022/11/03 06:22:24;;;;;;;1.42;1.33;;;16.40;64.50;;;;;;5085694;28;20313;-70
2022/11/03 06:25:17;;;;;;;1.45;1.25;;;16.40;64.50;;;;;;5085663;28;20083;-70
2022/11/03 06:27:43;;;;;;;1.10;1.00;;;16.40;64.50;;;;;;5085438;28;20040;-70
2022/11/03 06:30:26;;;;;;;1.60;1.50;;;16.40;64.50;;;;;;5084329;28;20107;-70
2022/11/03 06:33:01;;;;;;;1.40;1.30;;;16.40;64.50;;;;;;5085527;28;20027;-70
2022/11/03 06:35:27;;;;;;;1.48;1.38;;;16.30;64.60;;;;;;5085415;28;20013;-70
2022/11/03 06:37:55;;;;;;;1.38;1.27;;;16.40;64.50;;;;;;5085366;28;20062;-70
2022/11/03 06:40:23;;;;;;;1.17;1.08;;;16.40;64.50;;;;;;5085330;28;20012;-69
2022/11/03 06:42:50;;;;;;;1.50;1.40;;;16.40;64.50;;;;;;5085310;28;20013;-70
2022/11/03 06:45:24;;;;;;;2.20;1.35;;;16.40;64.50;;;;;;5085248;28;20024;-70
2022/11/03 06:47:52;;;;;;;1.27;1.10;;;16.40;64.50;;;;;;5085186;28;20028;-70
2022/11/03 06:50:32;;;;;;;1.10;1.00;;;16.40;64.50;;;;;;5085158;28;20301;-69
2022/11/03 06:53:02;;;;;;;1.58;1.48;;;16.40;64.50;;;;;;5085035;28;20029;-70
2022/11/03 06:55:30;;;;;;;2.13;1.45;;;16.40;64.50;;;;;;5085239;28;20016;-70
2022/11/03 06:58:25;;;;;;;1.38;1.15;;;16.30;64.50;;;;;;5085000;28;20019;-70
2022/11/03 07:00:51;;;;;;;1.50;1.40;;;16.30;64.50;;;;;;5084947;28;20024;-70
2022/11/03 07:03:23;;;;;;;1.83;1.00;;;16.40;64.50;;;;;;5084870;28;20020;-70
2022/11/03 07:05:49;;;;;;;1.13;1.05;;;16.40;64.50;;;;;;5084831;28;20016;-70
2022/11/03 07:08:29;;;;;;;1.27;1.15;;;16.40;64.30;;;;;;5084737;28;20025;-70
2022/11/03 07:11:14;;;;;;;1.52;1.30;;;16.40;64.20;;;;;;5084777;28;20083;-70
2022/11/03 07:13:40;;;;;;;2.47;1.52;;;16.50;64.30;;;;;;5084516;28;20057;-70
2022/11/03 07:16:18;;;;;;;1.30;1.20;;;16.50;64.00;;;;;;5084560;28;20044;-70
2022/11/03 07:18:46;;;;;;;1.75;1.65;;;16.60;63.90;;;;;;5084646;28;20031;-70
2022/11/03 07:21:31;;;;;;;1.52;1.40;;;16.70;63.70;;;;;;5083384;28;20197;-70
2022/11/03 07:24:10;;;;;;;1.52;1.27;;;16.70;63.60;;;;;;5084169;28;20017;-70
2022/11/03 07:26:35;;;;;;;1.45;1.35;;;16.80;63.50;;;;;;5084301;28;20058;-70
2022/11/03 07:29:01;;;;;;;1.42;1.10;;;16.80;63.40;;;;;;5084389;28;20265;-70
2022/11/03 07:31:30;;;;;;;1.30;1.20;;;16.80;63.20;;;;;;5084235;28;20045;-70
2022/11/03 07:33:57;;;;;;;1.23;1.10;;;16.90;63.20;;;;;;5084210;28;20244;-70
2022/11/03 07:36:26;;;;;;;1.20;1.10;;;16.90;63.20;;;;;;5083097;28;20013;-70
2022/11/03 07:38:55;;;;;;;1.40;1.20;;;16.80;63.20;;;;;;5084134;28;20323;-71
2022/11/03 07:41:26;;;;;;;1.35;1.25;;;16.90;63.20;;;;;;5084144;28;20246;-70
2022/11/03 07:43:57;;;;;;;1.73;1.55;;;16.90;63.20;;;;;;5084130;28;20036;-70
2022/11/03 07:46:24;;;;;;;1.65;1.00;;;16.80;63.20;;;;;;5084110;28;20295;-70
2022/11/03 07:48:58;;;;;;;1.30;1.20;;;16.80;63.30;;;;;;5083997;28;20083;-70
2022/11/03 07:51:30;;;;;;;1.35;1.25;;;16.80;63.40;;;;;;5083857;28;20405;-70
2022/11/03 07:54:44;;;;;;;1.52;1.35;;;16.80;63.40;;;;;;5083900;28;20022;-70
2022/11/03 07:57:29;;;;;;;1.48;1.25;;;16.80;63.50;;;;;;5022235;28;20068;-70
2022/11/03 08:00:00;;;;;;;1.17;1.08;;;16.80;63.60;;;;;;5079332;28;20029;-69
2022/11/03 08:02:33;;;;;;;1.42;1.23;;;16.80;63.60;;;;;;5083894;28;20321;-70
2022/11/03 08:04:59;;;;;;;1.50;1.20;;;16.80;63.80;;;;;;5083828;28;20024;-70
2022/11/03 08:07:26;;;;;;;1.55;1.45;;;16.80;63.80;;;;;;5083746;28;20020;-70
2022/11/03 08:09:53;;;;;;;1.15;1.00;;;16.80;63.80;;;;;;5083677;28;20016;-70
2022/11/03 08:12:19;;;;;;;1.48;1.38;;;16.80;63.80;;;;;;5083692;28;20080;-69
2022/11/03 08:14:45;;;;;;;1.35;1.25;;;16.80;63.90;;;;;;5083565;28;20027;-70
2022/11/03 08:17:11;;;;;;;1.45;1.10;;;16.80;63.80;;;;;;5083658;28;20079;-70
2022/11/03 08:19:37;;;;;;;1.00;1.00;;;16.70;63.80;;;;;;5083609;28;20247;-70
2022/11/03 08:22:03;;;;;;;1.25;1.15;;;16.80;63.90;;;;;;5083530;28;20040;-70
2022/11/03 08:24:29;;;;;;;1.00;1.00;;;16.80;63.80;;;;;;5083532;28;20024;-70
2022/11/03 08:26:55;;;;;;;1.27;1.17;;;16.80;63.60;;;;;;5082793;28;20351;-70
2022/11/03 08:29:21;;;;;;;1.65;1.30;;;16.80;63.60;;;;;;5083542;28;20258;-70
2022/11/03 08:31:46;;;;;;;1.85;1.58;;;16.80;63.50;;;;;;5083467;28;20066;-69
2022/11/03 08:34:12;;;;;;;1.30;1.20;;;16.80;63.60;;;;;;5082215;28;20036;-70
2022/11/03 08:36:38;;;;;;;1.60;1.08;;;16.80;63.70;;;;;;5083403;28;20025;-70
2022/11/03 08:39:04;;;;;;;1.50;1.40;;;16.80;63.60;;;;;;5082273;28;20017;-71
2022/11/03 08:41:30;;;;;;;1.30;1.20;;;16.80;63.80;;;;;;5082209;28;20013;-70
2022/11/03 08:43:56;;;;;;;1.55;1.35;;;16.80;63.80;;;;;;5083356;28;20016;-70
2022/11/03 08:46:22;;;;;;;1.50;1.40;;;16.80;63.80;;;;;;5083344;28;20078;-70
2022/11/03 08:48:48;;;;;;;1.10;1.00;;;16.80;63.90;;;;;;5082419;28;20155;-70
2022/11/03 08:51:15;;;;;;;1.60;1.50;;;16.80;63.90;;;;;;5083294;28;20016;-70
2022/11/03 08:53:41;;;;;;;1.40;1.30;;;16.80;63.90;;;;;;5083267;28;20023;-70
2022/11/03 08:56:07;;;;;;;2.08;1.40;;;16.80;64.00;;;;;;5083184;28;20032;-70
2022/11/03 08:58:33;;;;;;;1.63;1.25;;;16.80;64.00;;;;;;5083240;28;20012;-70
2022/11/03 09:00:59;;;;;;;1.15;1.05;;;16.80;64.00;;;;;;5083205;28;20269;-70
2022/11/03 09:03:24;;;;;;;1.40;1.30;;;16.80;64.00;;;;;;5083206;28;20243;-70
2022/11/03 09:05:50;;;;;;;1.30;1.20;;;16.80;64.00;;;;;;5083197;28;20035;-70
2022/11/03 09:08:16;;;;;;;1.15;1.05;;;16.70;64.00;;;;;;5083144;28;20185;-70
2022/11/03 09:10:42;;;;;;;1.15;0.90;;;16.80;64.00;;;;;;5083119;28;20320;-70
2022/11/03 09:13:08;;;;;;;1.20;1.10;;;16.80;64.00;;;;;;5083078;28;20028;-70
2022/11/03 09:15:34;;;;;;;1.20;1.10;;;16.80;64.00;;;;;;5083005;28;20088;-70
2022/11/03 09:18:00;;;;;;;1.40;1.30;;;16.80;63.90;;;;;;5081868;28;20012;-70
2022/11/03 09:20:26;;;;;;;1.65;1.35;;;16.80;64.00;;;;;;5083029;28;20020;-70
2022/11/03 09:22:52;;;;;;;1.30;1.20;;;16.70;64.00;;;;;;5082989;28;20360;-70
2022/11/03 09:25:18;;;;;;;1.63;1.38;;;16.80;64.00;;;;;;5082974;28;20020;-70
2022/11/03 09:27:44;;;;;;;1.27;1.17;;;16.70;64.10;;;;;;5082800;28;20067;-70
2022/11/03 09:30:10;;;;;;;1.30;1.20;;;16.70;64.20;;;;;;5082943;28;20024;-70
2022/11/03 09:32:37;;;;;;;1.48;1.25;;;16.70;64.20;;;;;;5082894;28;20017;-70
2022/11/03 09:35:04;;;;;;;1.60;1.50;;;16.70;64.10;;;;;;5082823;28;20024;-70
2022/11/03 09:37:30;;;;;;;1.25;1.15;;;16.80;64.10;;;;;;5085012;28;20047;-70
2022/11/03 09:39:56;;;;;;;1.42;1.27;;;16.70;64.20;;;;;;5086485;28;20402;-70
2022/11/03 09:42:23;;;;;;;1.35;1.25;;;16.70;64.10;;;;;;5086408;28;20205;-70
2022/11/03 09:44:50;;;;;;;1.48;1.20;;;16.70;64.20;;;;;;5086387;28;20308;-70
2022/11/03 09:47:37;;;;;;;1.65;1.13;;;16.70;64.30;;;;;;5086377;28;20212;-70
2022/11/03 09:50:04;;;;;;;1.20;1.10;;;16.70;64.30;;;;;;5086285;28;20016;-70
2022/11/03 09:52:30;;;;;;;1.23;1.10;;;16.60;64.40;;;;;;5086276;28;20024;-70
2022/11/03 09:54:58;;;;;;;1.88;1.33;;;16.60;64.50;;;;;;5086145;28;20403;-70
2022/11/03 09:57:27;;;;;;;1.80;1.15;;;16.60;64.50;;;;;;5086199;28;20044;-70
2022/11/03 09:59:53;;;;;;;1.30;1.20;;;16.60;64.50;;;;;;5086169;28;20084;-70
2022/11/03 10:02:28;;;;;;;1.48;1.38;;;16.70;64.50;;;;;;5086090;28;20016;-70
2022/11/03 10:04:56;;;;;;;1.67;1.40;;;16.60;64.50;;;;;;5086067;28;20032;-70
2022/11/03 10:07:24;;;;;;;1.60;1.50;;;16.60;64.40;;;;;;5086004;28;20020;-69
2022/11/03 10:09:52;;;;;;;1.55;1.40;;;16.70;64.40;;;;;;5085975;28;20028;-70
2022/11/03 10:12:20;;;;;;;1.70;1.60;;;16.70;64.40;;;;;;5085912;28;20062;-70
2022/11/03 10:14:46;;;;;;;1.50;1.20;;;16.70;64.40;;;;;;5085800;28;20320;-70
2022/11/03 10:17:18;;;;;;;1.48;1.20;;;16.70;64.40;;;;;;5085816;28;20019;-70
2022/11/03 10:19:48;;;;;;;1.25;1.15;;;16.70;64.30;;;;;;5085797;28;20012;-70
2022/11/03 10:22:15;;;;;;;1.20;1.10;;;16.70;64.30;;;;;;5085731;28;20358;-70
2022/11/03 10:24:40;;;;;;;1.23;1.13;;;16.70;64.30;;;;;;5085661;28;20212;-70
2022/11/03 10:27:24;;;;;;;1.45;1.30;;;16.80;64.30;;;;;;5085465;28;20045;-70
2022/11/03 10:30:06;;;;;;;2.03;1.42;;;16.80;64.30;;;;;;5085644;28;20044;-70
2022/11/03 10:32:33;;;;;;;1.55;1.45;;;16.70;64.30;;;;;;5084390;28;20276;-70
2022/11/03 10:34:59;;;;;;;1.30;1.20;;;16.80;64.40;;;;;;5085369;28;20031;-70
2022/11/03 10:37:26;;;;;;;1.77;1.50;;;16.80;64.30;;;;;;5085444;28;20040;-70
2022/11/03 10:39:54;;;;;;;1.20;1.10;;;16.80;64.30;;;;;;5085404;28;20058;-70
2022/11/03 10:42:22;;;;;;;2.08;1.63;;;16.80;64.20;;;;;;5085354;28;20016;-70
2022/11/03 10:44:53;;;;;;;1.85;1.52;;;16.80;64.30;;;;;;5085292;28;20024;-70
2022/11/03 10:47:32;;;;;;;1.35;1.10;;;16.80;64.40;;;;;;5085227;28;20486;-70
2022/11/03 10:50:00;;;;;;;1.85;1.40;;;16.80;64.20;;;;;;5084650;28;20298;-69
2022/11/03 10:52:30;;;;;;;1.02;1.00;;;16.80;64.30;;;;;;5085153;28;20067;-70
2022/11/03 10:54:58;;;;;;;0.98;0.98;;;16.80;64.30;;;;;;5085072;28;20268;-70
2022/11/03 10:57:25;;;;;;;1.42;1.30;;;16.80;64.40;;;;;;5085067;28;20036;-70
2022/11/03 10:59:53;;;;;;;2.05;1.40;;;16.80;64.30;;;;;;5085008;28;20024;-70
2022/11/03 11:02:24;;;;;;;1.85;1.63;;;16.80;64.30;;;;;;5084956;28;20054;-70
2022/11/03 11:04:58;;;;;;;1.13;1.05;;;16.80;64.30;;;;;;5084874;28;20028;-70
2022/11/03 11:07:31;;;;;;;1.70;1.48;;;16.80;64.40;;;;;;5085055;28;20032;-70
2022/11/03 11:10:11;;;;;;;2.15;1.60;;;16.80;64.30;;;;;;5084823;28;20012;-70
2022/11/03 11:12:37;;;;;;;1.40;1.27;;;16.80;64.30;;;;;;5084728;28;20271;-70
2022/11/03 11:15:27;;;;;;;1.55;1.27;;;16.80;64.50;;;;;;5084577;28;20025;-70
2022/11/03 11:17:53;;;;;;;1.38;1.13;;;16.70;64.40;;;;;;5076268;28;20032;-70
2022/11/03 11:20:33;;;;;;;1.40;1.30;;;16.70;64.50;;;;;;5084596;28;20264;-69
2022/11/03 11:23:27;;;;;;;1.55;1.35;;;16.70;64.50;;;;;;5084573;28;20023;-70
2022/11/03 11:26:08;;;;;;;1.30;1.20;;;16.70;64.60;;;;;;5084480;28;20251;-70
2022/11/03 11:28:38;;;;;;;1.60;1.50;;;16.70;64.70;;;;;;5084252;28;20150;-70
2022/11/03 11:31:31;;;;;;;1.52;1.40;;;16.70;64.70;;;;;;5084392;28;20237;-70
2022/11/03 11:34:09;;;;;;;1.20;1.10;;;16.70;64.70;;;;;;5081802;28;20040;-70
2022/11/03 11:36:36;;;;;;;1.40;1.30;;;16.70;64.70;;;;;;5084284;28;20062;-70
2022/11/03 11:39:03;;;;;;;1.63;1.52;;;16.70;64.70;;;;;;5084208;28;20025;-70
2022/11/03 11:42:06;;;;;;;1.48;1.30;;;16.70;64.70;;;;;;5084181;28;20233;-70
2022/11/03 11:45:01;;;;;;;1.65;1.45;;;16.70;64.70;;;;;;5084094;28;20355;-70
2022/11/03 11:47:39;;;;;;;1.75;1.50;;;16.70;64.70;;;;;;5084105;28;20130;-69
2022/11/03 11:50:05;;;;;;;1.70;1.52;;;16.70;64.70;;;;;;5083996;28;20051;-70
2022/11/03 11:52:31;;;;;;;1.73;1.50;;;16.60;64.70;;;;;;5083960;28;20016;-70
2022/11/03 11:54:57;;;;;;;1.50;1.40;;;16.60;64.80;;;;;;5083902;28;20066;-70
2022/11/03 11:57:24;;;;;;;1.88;1.40;;;16.60;64.70;;;;;;5083904;28;20070;-70
2022/11/03 11:59:53;;;;;;;1.42;1.33;;;16.60;64.70;;;;;;5083313;28;20054;-70
2022/11/03 12:02:22;;;;;;;1.40;1.30;;;16.60;64.60;;;;;;5083676;28;20028;-70
2022/11/03 12:04:54;;;;;;;1.83;1.73;;;16.70;64.70;;;;;;5083814;28;20027;-70
2022/11/03 12:07:36;;;;;;;2.03;1.50;;;16.60;64.60;;;;;;5082634;28;20020;-70
2022/11/03 12:10:14;;;;;;;1.65;1.23;;;16.60;64.70;;;;;;5083675;28;20020;-70
2022/11/03 12:12:40;;;;;;;;;;;16.60;64.70;;;;;;5084119;28;20032;-70
2022/11/03 12:15:26;;;;;;;2.00;1.55;;;16.60;64.70;;;;;;5083632;28;19904;-70
2022/11/03 12:17:52;;;;;;;2.15;1.40;;;16.60;64.70;;;;;;5083511;28;20217;-70
2022/11/03 12:20:35;;;;;;;1.75;1.60;;;16.60;64.70;;;;;;5083579;28;20039;-70
2022/11/03 12:23:00;;;;;;;1.73;1.50;;;16.60;64.70;;;;;;5083571;28;20021;-70
2022/11/03 12:25:35;;;;;;;1.80;1.40;;;16.60;64.70;;;;;;5083536;28;20023;-70
2022/11/03 12:28:01;;;;;;;1.88;1.60;;;16.70;64.70;;;;;;5083412;28;20044;-70
2022/11/03 12:30:26;;;;;;;1.75;1.45;;;16.70;64.60;;;;;;5083505;28;20043;-70
2022/11/03 12:32:52;;;;;;;1.60;1.25;;;16.70;64.60;;;;;;5083460;28;20249;-70
2022/11/03 12:35:18;;;;;;;2.13;1.70;;;16.70;64.60;;;;;;5083364;28;20265;-70
2022/11/03 12:37:45;;;;;;;1.58;1.20;;;16.70;64.60;;;;;;5083441;28;20024;-70
2022/11/03 12:40:13;;;;;;;1.63;1.33;;;16.70;64.60;;;;;;5083408;28;20080;-70
2022/11/03 12:42:38;;;;;;;1.60;1.50;;;16.70;64.70;;;;;;5083381;28;20032;-71
2022/11/03 12:45:06;;;;;;;1.38;1.23;;;16.70;64.60;;;;;;5083383;28;20052;-70
2022/11/03 12:47:31;;;;;;;1.83;1.40;;;16.70;64.60;;;;;;5083416;28;20034;-70
2022/11/03 12:49:57;;;;;;;1.77;1.63;;;16.70;64.60;;;;;;5083336;28;20024;-70
2022/11/03 12:52:23;;;;;;;1.75;1.48;;;16.70;64.70;;;;;;5083325;28;20024;-70
2022/11/03 12:54:49;;;;;;;2.05;1.60;;;16.70;64.70;;;;;;5083247;28;20130;-69
2022/11/03 12:57:15;;;;;;;1.70;1.30;;;16.70;64.70;;;;;;5083293;28;20042;-70
2022/11/03 12:59:41;;;;;;;1.77;1.63;;;16.60;64.60;;;;;;5083211;28;20020;-70
2022/11/03 13:02:09;;;;;;;2.83;1.45;;;16.70;64.70;;;;;;5083211;28;20076;-70
2022/11/03 13:04:35;;;;;;;2.15;1.40;;;16.70;64.60;;;;;;5083240;28;20100;-70
2022/11/03 13:07:01;;;;;;;1.52;1.33;;;16.70;64.60;;;;;;5083172;28;20028;-70
2022/11/03 13:09:27;;;;;;;1.88;1.58;;;16.70;64.70;;;;;;5081997;28;20023;-70
2022/11/03 13:14:37;;;;;;;1.40;1.10;;;16.60;64.60;;;;;;5086970;28;20039;-70
2022/11/03 13:17:03;;;;;;;1.40;1.23;;;16.60;64.60;;;;;;5086948;28;20301;-70
2022/11/03 13:19:29;;;;;;;1.67;1.40;;;16.60;64.60;;;;;;5086892;28;20017;-70
2022/11/03 13:21:54;;;;;;;1.52;1.42;;;16.60;64.60;;;;;;5086831;28;20042;-70
2022/11/03 13:24:20;;;;;;;1.67;1.58;;;16.60;64.60;;;;;;5086798;28;20243;-70